createdAt,value
2023-02-17T00:00:39.528Z,6.22
2023-02-17T00:04:53.973Z,6.48
2023-02-17T00:09:06.487Z,6.34
2023-02-17T00:13:18.846Z,6.55
2023-02-17T00:17:31.190Z,6.57
2023-02-17T00:21:43.521Z,6.65
2023-02-17T00:25:56.571Z,6.70
2023-02-17T00:30:17.168Z,6.75
2023-02-17T00:34:29.677Z,6.71
2023-02-17T00:38:42.004Z,6.97
2023-02-17T00:42:55.113Z,7.10
2023-02-17T00:47:07.439Z,7.13
2023-02-17T00:51:20.843Z,7.14
2023-02-17T00:55:36.259Z,7.11
2023-02-17T00:59:51.064Z,7.14
2023-02-17T01:04:04.179Z,7.13
2023-02-17T01:08:19.091Z,7.29
2023-02-17T01:12:31.602Z,7.37
2023-02-17T01:16:49.514Z,7.40
2023-02-17T01:21:02.275Z,7.43
2023-02-17T01:25:24.680Z,7.37
2023-02-17T01:29:37.438Z,7.37
2023-02-17T01:33:51.936Z,7.36
2023-02-17T01:38:05.486Z,7.38
2023-02-17T01:42:20.906Z,7.35
2023-02-17T01:46:35.989Z,7.30
2023-02-17T01:50:53.824Z,7.30
2023-02-17T01:55:11.220Z,7.47
2023-02-17T01:59:23.753Z,7.53
2023-02-17T02:03:38.670Z,7.50
2023-02-17T02:07:52.672Z,7.39
2023-02-17T02:12:35.871Z,7.41
2023-02-17T02:17:09.776Z,7.42
2023-02-17T02:21:41.038Z,7.30
2023-02-17T02:26:55.986Z,7.34
2023-02-17T02:31:46.729Z,7.37
2023-02-17T02:36:21.781Z,7.25
2023-02-17T02:40:40.862Z,7.07
2023-02-17T02:44:53.294Z,7.10
2023-02-17T02:49:08.211Z,7.08
2023-02-17T02:53:48.071Z,6.83
2023-02-17T02:58:16.528Z,6.52
2023-02-17T03:02:40.801Z,6.20
2023-02-17T03:07:28.046Z,5.84
2023-02-17T03:11:42.199Z,5.63
2023-02-17T03:15:54.874Z,5.54
2023-02-17T03:20:08.815Z,6.38
2023-02-17T03:24:22.652Z,6.39
2023-02-17T03:28:35.806Z,6.38
2023-02-17T03:32:48.239Z,6.60
2023-02-17T03:37:00.648Z,6.68
2023-02-17T03:41:15.625Z,6.66
2023-02-17T03:45:27.991Z,6.57
2023-02-17T03:49:40.528Z,6.53
2023-02-17T03:53:53.907Z,6.37
2023-02-17T03:58:06.328Z,6.54
2023-02-17T04:02:19.291Z,6.46
2023-02-17T04:06:32.803Z,6.28
2023-02-17T04:10:45.423Z,6.28
2023-02-17T04:14:57.849Z,6.24
2023-02-17T04:19:10.272Z,6.33
2023-02-17T04:23:22.732Z,6.18
2023-02-17T04:27:35.048Z,6.24
2023-02-17T04:31:47.608Z,6.22
2023-02-17T04:36:00.355Z,6.17
2023-02-17T04:40:13.149Z,6.08
2023-02-17T04:44:25.510Z,6.13
2023-02-17T04:48:38.385Z,5.95
2023-02-17T04:52:50.853Z,6.01
2023-02-17T04:57:03.196Z,6.00
2023-02-17T05:01:15.631Z,5.83
2023-02-17T05:05:28.043Z,5.94
2023-02-17T05:09:44.353Z,5.90
2023-02-17T05:13:56.781Z,5.88
2023-02-17T05:18:09.036Z,5.89
2023-02-17T05:22:21.432Z,5.81
2023-02-17T05:26:33.840Z,5.88
2023-02-17T05:30:49.271Z,5.73
2023-02-17T05:35:01.703Z,5.85
2023-02-17T05:39:14.143Z,5.86
2023-02-17T05:43:26.579Z,5.87
2023-02-17T05:47:39.032Z,5.84
2023-02-17T05:51:51.405Z,5.89
2023-02-17T05:56:04.198Z,5.87
2023-02-17T06:00:17.565Z,5.90
2023-02-17T06:04:30.033Z,5.78
2023-02-17T06:08:42.842Z,5.90
2023-02-17T06:12:55.220Z,5.91
2023-02-17T06:17:07.757Z,5.90
2023-02-17T06:21:20.068Z,5.96
2023-02-17T06:25:32.438Z,6.09
2023-02-17T06:29:44.972Z,6.19
2023-02-17T06:33:57.290Z,6.14
2023-02-17T06:38:09.755Z,6.13
2023-02-17T06:42:24.913Z,6.31
2023-02-17T06:46:45.674Z,6.38
2023-02-17T06:51:01.031Z,6.68
2023-02-17T06:55:14.846Z,6.95
2023-02-17T06:59:27.236Z,7.26
2023-02-17T07:03:39.965Z,7.48
2023-02-17T07:07:53.898Z,7.95
2023-02-17T07:12:06.923Z,7.84
2023-02-17T07:16:19.350Z,6.96
2023-02-17T07:20:34.491Z,7.07
2023-02-17T07:24:46.903Z,7.41
2023-02-17T07:28:59.328Z,8.01
2023-02-17T07:33:11.839Z,7.71
2023-02-17T07:37:24.130Z,7.39
2023-02-17T07:41:36.586Z,8.20
2023-02-17T07:45:56.167Z,8.39
2023-02-17T07:50:10.779Z,8.18
2023-02-17T07:54:23.510Z,7.86
2023-02-17T07:58:37.708Z,7.99
2023-02-17T08:02:50.096Z,8.75
2023-02-17T08:07:02.429Z,8.20
2023-02-17T08:11:35.550Z,8.35
2023-02-17T08:15:48.003Z,8.67
2023-02-17T08:20:05.877Z,8.69
2023-02-17T08:24:21.588Z,9.69
2023-02-17T08:28:34.070Z,9.77
2023-02-17T08:32:48.006Z,9.22
2023-02-17T08:37:04.053Z,9.56
2023-02-17T08:41:16.385Z,9.65
2023-02-17T08:45:28.940Z,9.78
2023-02-17T08:49:41.411Z,10.33
2023-02-17T08:53:56.131Z,10.41
2023-02-17T08:58:08.375Z,11.13
2023-02-17T09:02:20.810Z,11.40
2023-02-17T09:06:42.102Z,11.48
2023-02-17T09:10:54.490Z,11.41
2023-02-17T09:15:07.424Z,12.26
2023-02-17T09:19:20.109Z,12.19
2023-02-17T09:23:32.547Z,13.18
2023-02-17T09:27:44.930Z,13.59
2023-02-17T09:31:57.537Z,13.68
2023-02-17T09:36:13.011Z,14.05
2023-02-17T09:40:44.402Z,14.21
2023-02-17T09:45:05.629Z,14.39
2023-02-17T09:49:26.390Z,13.90
2023-02-17T09:54:05.964Z,14.46
2023-02-17T09:58:26.230Z,14.06
2023-02-17T10:03:00.514Z,14.05
2023-02-17T10:07:55.325Z,14.37
2023-02-17T10:12:14.342Z,13.94
2023-02-17T10:16:32.402Z,13.76
2023-02-17T10:21:02.977Z,12.93
2023-02-17T10:25:18.773Z,12.69
2023-02-17T10:29:36.360Z,12.42
2023-02-17T10:34:05.506Z,12.31
2023-02-17T10:38:48.750Z,12.25
2023-02-17T10:43:07.300Z,11.25
2023-02-17T10:47:22.684Z,12.27
2023-02-17T10:51:35.438Z,12.04
2023-02-17T10:55:54.778Z,13.15
2023-02-17T11:00:15.277Z,14.02
2023-02-17T11:04:27.714Z,14.72
2023-02-17T11:09:05.389Z,15.21
2023-02-17T11:13:43.364Z,16.41
2023-02-17T11:17:56.696Z,16.69
2023-02-17T11:22:34.281Z,16.18
2023-02-17T11:27:03.393Z,15.83
2023-02-17T11:31:32.130Z,15.94
2023-02-17T11:35:55.733Z,15.41
2023-02-17T11:40:26.542Z,15.91
2023-02-17T11:44:39.229Z,15.74
2023-02-17T11:49:03.621Z,16.14
2023-02-17T11:53:39.040Z,15.95
2023-02-17T11:58:28.668Z,16.25
2023-02-17T12:02:59.679Z,16.04
2023-02-17T12:07:25.281Z,15.83
2023-02-17T12:12:25.479Z,15.16
2023-02-17T12:17:13.131Z,17.06
2023-02-17T12:21:57.596Z,18.41
2023-02-17T12:26:37.902Z,17.74
2023-02-17T12:31:03.148Z,18.12
2023-02-17T12:35:22.970Z,16.50
2023-02-17T12:39:57.780Z,16.78
2023-02-17T12:44:20.652Z,16.15
2023-02-17T12:48:57.067Z,15.79
2023-02-17T12:53:42.104Z,15.39
2023-02-17T12:58:01.427Z,16.75
2023-02-17T13:02:16.864Z,16.69
2023-02-17T13:06:43.452Z,16.21
2023-02-17T13:11:05.534Z,16.29
2023-02-17T13:15:30.601Z,15.97
2023-02-17T13:19:43.225Z,15.52
2023-02-17T13:24:13.192Z,15.28
2023-02-17T13:28:38.120Z,16.33
2023-02-17T13:33:27.023Z,16.22
2023-02-17T13:37:45.780Z,15.67
2023-02-17T13:42:00.651Z,15.44
2023-02-17T13:46:25.418Z,15.39
2023-02-17T13:50:45.113Z,15.52
2023-02-17T13:55:06.241Z,15.91
2023-02-17T13:59:25.575Z,15.57
2023-02-17T14:03:40.874Z,15.38
2023-02-17T14:07:58.885Z,15.58
2023-02-17T14:12:24.426Z,15.60
2023-02-17T14:16:39.056Z,15.60
2023-02-17T14:21:13.210Z,15.07
2023-02-17T14:25:34.428Z,15.14
2023-02-17T14:29:49.241Z,15.14
2023-02-17T14:34:03.826Z,15.18
2023-02-17T14:38:22.529Z,14.79
2023-02-17T14:42:34.815Z,14.80
2023-02-17T14:46:47.214Z,14.84
2023-02-17T14:50:59.589Z,14.84
2023-02-17T14:56:00.221Z,14.55
2023-02-17T15:00:15.605Z,13.59
2023-02-17T15:04:28.080Z,13.58
2023-02-17T15:08:43.090Z,13.71
2023-02-17T15:13:01.418Z,13.49
2023-02-17T15:17:22.836Z,13.26
2023-02-17T15:21:40.525Z,13.04
2023-02-17T15:25:56.344Z,12.67
2023-02-17T15:30:17.013Z,12.01
2023-02-17T15:34:33.790Z,11.75
2023-02-17T15:38:47.421Z,11.87
2023-02-17T15:43:06.237Z,12.10
2023-02-17T15:47:21.002Z,11.26
2023-02-17T15:51:33.465Z,11.88
2023-02-17T15:55:46.728Z,12.07
2023-02-17T16:00:47.652Z,11.85
2023-02-17T16:05:00.222Z,11.70
2023-02-17T16:09:13.643Z,11.79
2023-02-17T16:13:27.893Z,11.14
2023-02-17T16:17:42.486Z,10.56
2023-02-17T16:21:55.237Z,10.90
2023-02-17T16:26:19.137Z,11.05
2023-02-17T16:30:35.244Z,10.87
2023-02-17T16:34:49.133Z,10.62
2023-02-17T16:39:04.522Z,10.38
2023-02-17T16:43:20.572Z,10.25
2023-02-17T16:47:33.135Z,9.54
2023-02-17T16:51:45.909Z,9.50
2023-02-17T16:55:58.437Z,10.02
2023-02-17T17:00:17.387Z,9.77
2023-02-17T17:04:29.776Z,9.91
2023-02-17T17:08:42.085Z,9.96
2023-02-17T17:12:55.763Z,10.29
2023-02-17T17:17:11.726Z,10.34
2023-02-17T17:21:24.717Z,10.08
2023-02-17T17:25:45.519Z,10.01
2023-02-17T17:29:57.869Z,9.84
2023-02-17T17:34:10.370Z,8.97
2023-02-17T17:38:22.878Z,8.79
2023-02-17T17:42:38.141Z,8.59
2023-02-17T17:46:50.548Z,9.34
2023-02-17T17:51:02.934Z,9.12
2023-02-17T17:55:16.397Z,8.59
2023-02-17T17:59:31.323Z,8.45
2023-02-17T18:03:43.726Z,8.97
2023-02-17T18:07:56.749Z,8.87
2023-02-17T18:12:18.330Z,8.75
2023-02-17T18:16:31.267Z,8.72
2023-02-17T18:20:43.862Z,8.81
2023-02-17T18:24:56.233Z,8.77
2023-02-17T18:29:08.898Z,8.81
2023-02-17T18:33:21.426Z,8.78
2023-02-17T18:37:34.428Z,8.60
2023-02-17T18:41:46.830Z,8.50
2023-02-17T18:45:59.827Z,8.50
2023-02-17T18:50:15.824Z,8.48
2023-02-17T18:54:28.347Z,8.55
2023-02-17T18:58:41.550Z,8.62
2023-02-17T19:02:54.346Z,8.53
2023-02-17T19:07:07.486Z,8.33
2023-02-17T19:11:23.220Z,8.21
2023-02-17T19:15:35.530Z,8.10
2023-02-17T19:19:48.203Z,8.00
2023-02-17T19:24:01.162Z,7.70
2023-02-17T19:28:13.527Z,7.62
2023-02-17T19:32:26.029Z,7.71
2023-02-17T19:36:39.211Z,7.82
2023-02-17T19:40:51.721Z,7.73
2023-02-17T19:45:04.193Z,7.50
2023-02-17T19:49:16.665Z,7.34
2023-02-17T19:53:29.458Z,7.58
2023-02-17T19:57:43.213Z,7.44
2023-02-17T20:01:55.756Z,7.38
2023-02-17T20:06:21.326Z,7.58
2023-02-17T20:10:34.308Z,7.88
2023-02-17T20:14:46.715Z,7.70
2023-02-17T20:19:01.466Z,7.39
2023-02-17T20:23:14.230Z,7.47
2023-02-17T20:27:26.763Z,7.54
2023-02-17T20:31:41.583Z,7.54
2023-02-17T20:35:54.124Z,7.12
2023-02-17T20:40:07.149Z,6.70
2023-02-17T20:44:19.599Z,6.85
2023-02-17T20:48:32.082Z,6.69
2023-02-17T20:52:45.522Z,7.15
2023-02-17T20:57:01.241Z,7.16
2023-02-17T21:01:13.660Z,6.64
2023-02-17T21:05:26.622Z,7.22
2023-02-17T21:09:39.081Z,7.19
2023-02-17T21:13:52.143Z,7.02
2023-02-17T21:18:06.013Z,6.87
2023-02-17T21:22:19.138Z,6.67
2023-02-17T21:26:33.230Z,6.04
2023-02-17T21:30:48.719Z,5.75
2023-02-17T21:35:01.127Z,6.25
2023-02-17T21:39:13.935Z,6.77
2023-02-17T21:43:44.498Z,6.79
2023-02-17T21:47:56.698Z,6.54
2023-02-17T21:52:09.358Z,5.97
2023-02-17T21:56:23.654Z,6.19
2023-02-17T22:00:35.981Z,6.52
2023-02-17T22:04:48.385Z,6.55
2023-02-17T22:09:00.770Z,6.64
2023-02-17T22:13:13.181Z,6.24
2023-02-17T22:17:25.587Z,6.41
2023-02-17T22:21:39.401Z,5.67
2023-02-17T22:25:51.857Z,5.20
2023-02-17T22:30:05.657Z,6.29
2023-02-17T22:34:18.057Z,5.95
2023-02-17T22:38:30.889Z,6.08
2023-02-17T22:42:43.245Z,6.28
2023-02-17T22:46:55.560Z,5.88
2023-02-17T22:51:14.396Z,6.32
2023-02-17T22:55:29.963Z,6.07
2023-02-17T22:59:43.675Z,5.60
2023-02-17T23:03:57.352Z,5.33
2023-02-17T23:08:11.054Z,5.35
2023-02-17T23:12:24.109Z,5.57
2023-02-17T23:16:38.469Z,5.32
2023-02-17T23:20:53.947Z,5.78
2023-02-17T23:25:07.541Z,5.86
2023-02-17T23:29:20.287Z,5.21
2023-02-17T23:33:34.958Z,5.35
2023-02-17T23:37:52.693Z,5.62
2023-02-17T23:42:05.953Z,5.06
2023-02-17T23:46:18.181Z,5.09
2023-02-17T23:50:30.500Z,4.83
2023-02-17T23:54:44.713Z,5.63
2023-02-17T23:58:57.205Z,5.95
